Flight Track Log - Related Links

Times and Time Zones

All times are in EDT time to prevent confusion due to time zone crossing. See the DAL268 flight status page for this flight to view local times or setup timezone preferences in your user account.

Time Position Orientation Groundspeed Altitude Reporting Facility
EDT Latitude Longitude Course Direction KTS MPH feet Rate Location/Type
Fri 02:15:50 PM 37.6160 -122.3810 300° West 11 13  Level FlightAware ADS-B
Fri 02:17:09 PM 37.6150 -122.3810 180° South 50 Level FlightAware ADS-B
Fri 02:18:46 PM 37.6160 -122.3800 38° Northeast 14 16 55 Level FlightAware ADS-B
Fri 02:19:27 PM 37.6170 -122.3790 38° Northeast 22 25 62 Level FlightAware ADS-B
Fri 02:20:06 PM 37.6170 -122.3770 90° East 28 32 65 Level FlightAware ADS-B
Fri 02:20:38 PM 37.6160 -122.3750 122° Southeast 33 38 69 Level FlightAware ADS-B
Fri 02:20:45 PM 37.6160 -122.3740 90° East 31 36 72 Level FlightAware ADS-B
Fri 02:21:18 PM 37.6160 -122.3720 90° East 30 35 73 Level FlightAware ADS-B
Fri 02:21:46 PM 37.6150 -122.3700 122° Southeast 29 33 76 Level FlightAware ADS-B
Fri 02:22:02 PM 37.6150 -122.3690 90° East 29 33 80 Level FlightAware ADS-B
Fri 02:22:24 PM 37.6140 -122.3680 142° Southeast 30 35 82 Level FlightAware ADS-B
Fri 02:22:58 PM 37.6130 -122.3660 122° Southeast 28 32 85 Level FlightAware ADS-B
Fri 02:23:27 PM 37.6120 -122.3640 122° Southeast 23 26 91 Level FlightAware ADS-B
Fri 02:23:54 PM 37.6120 -122.3630 90° East 19 22 96 Level FlightAware ADS-B
Fri 02:25:00 PM 37.6110 -122.3630 180° South 11 13 102 Level FlightAware ADS-B
Fri 02:25:44 PM 37.6110 -122.3620 90° East 10 12 118 Level FlightAware ADS-B
Fri 02:26:49 PM 37.6110 -122.3610 90° East 13 15 133 Level FlightAware ADS-B
Fri 02:27:50 PM 37.6110 -122.3600 90° East 14 16 162 Level FlightAware ADS-B
Fri 02:29:17 PM 37.6110 -122.3590 90° East 20 23 203 Level FlightAware ADS-B
Fri 02:29:40 PM 37.6120 -122.3590 360° North 23 26 322 Level FlightAware ADS-B
Fri 02:31:09 PM 37.6130 -122.3620 293° West 74 85 381 Level FlightAware ADS-B
Fri 02:31:23 PM 37.6170 -122.3700 302° West 135 155 1,297 Level FlightAware ADS-B
Fri 02:31:46 PM 37.6251 -122.3890 298° West 154 177 800 2,222 Climbing FlightAware ADS-B
Fri 02:31:50 PM 37.6268 -122.3920 306° West 154 177 1,000 3,429 Climbing FlightAware ADS-B
Fri 02:31:53 PM 37.6286 -122.3940 319° Northwest 156 180 1,200 2,571 Climbing FlightAware ADS-B
Fri 02:31:57 PM 37.6309 -122.3960 325° Northwest 159 183 1,300 1,800 Climbing FlightAware ADS-B
Fri 02:32:03 PM 37.6356 -122.3980 341° North 165 190 1,500 1,800 Climbing FlightAware ADS-B
Fri 02:32:07 PM 37.6385 -122.3990 345° North 176 203 1,600 857 Climbing FlightAware ADS-B
Fri 02:32:10 PM 37.6415 -122.3990 360° North 185 213 1,600 857 Level FlightAware ADS-B
Fri 02:32:14 PM 37.6444 -122.3990 360° North 191 220 1,700 1,714 Climbing FlightAware ADS-B
Fri 02:32:17 PM 37.6472 -122.3980 16° North 198 228 1,800 1,500 Climbing FlightAware ADS-B
Fri 02:32:22 PM 37.6516 -122.3970 10° North 207 238 1,900 1,333 Climbing FlightAware ADS-B
Fri 02:32:26 PM 37.6554 -122.3950 23° Northeast 215 247 2,000 1,846 Climbing FlightAware ADS-B
Fri 02:32:35 PM 37.6632 -122.3880 35° Northeast 236 272 2,300 1,846 Climbing FlightAware ADS-B
Fri 02:32:39 PM 37.6664 -122.3840 45° Northeast 241 277 2,400 2,182 Climbing FlightAware ADS-B
Fri 02:32:46 PM 37.6713 -122.3770 49° Northeast 246 283 2,700 2,250 Climbing FlightAware ADS-B
Fri 02:33:03 PM 37.6831 -122.3550 56° Northeast 263 303 3,300 2,063 Climbing FlightAware ADS-B
Fri 02:33:18 PM 37.6940 -122.3340 57° Northeast 282 325 3,800 2,276 Climbing FlightAware ADS-B
Fri 02:33:32 PM 37.7041 -122.3140 57° Northeast 289 333 4,400 2,800 Climbing FlightAware ADS-B
Fri 02:33:48 PM 37.7157 -122.2920 56° Northeast 291 335 5,200 2,757 Climbing FlightAware ADS-B
Fri 02:34:09 PM 37.7315 -122.2620 56° Northeast 293 337 6,100 2,842 Climbing FlightAware ADS-B
Fri 02:34:26 PM 37.7455 -122.2380 54° Northeast 297 342 7,000 2,727 Climbing FlightAware ADS-B
Fri 02:34:42 PM 37.7605 -122.2180 47° Northeast 297 342 7,600 2,400 Climbing FlightAware ADS-B
Fri 02:34:51 PM 37.7700 -122.2090 37° Northeast 297 342 8,000 2,640 Climbing FlightAware ADS-B
Fri 02:35:07 PM 37.7875 -122.1920 38° Northeast 297 342 8,700 2,432 Climbing FlightAware ADS-B
Fri 02:35:28 PM 37.8108 -122.1690 38° Northeast 305 351 9,500 2,118 Climbing FlightAware ADS-B
Fri 02:35:58 PM 37.8458 -122.1360 37° Northeast 320 368 10,500 1,313 Climbing FlightAware ADS-B
Fri 02:36:32 PM 37.8890 -122.0940 37° Northeast 360 414 10,900 831 Climbing FlightAware ADS-B
Fri 02:37:03 PM 37.9311 -122.0530 38° Northeast 391 450 11,400 1,543 Climbing FlightAware ADS-B
Fri 02:37:42 PM 37.9890 -121.9970 37° Northeast 406 467 12,700 2,111 Climbing FlightAware ADS-B
Fri 02:37:57 PM 38.0110 -121.9750 38° Northeast 409 471 13,300 2,250 Climbing FlightAware ADS-B
Fri 02:38:30 PM 38.0618 -121.9260 37° Northeast 411 473 14,500 2,137 Climbing FlightAware ADS-B
Fri 02:39:10 PM 38.1220 -121.8670 38° Northeast 416 479 15,900 2,143 Climbing FlightAware ADS-B
Fri 02:39:54 PM 38.1910 -121.8000 37° Northeast 422 486 17,500 1,929 Climbing FlightAware ADS-B
Fri 02:40:34 PM 38.2520 -121.7400 38° Northeast 432 497 18,600 1,671 Climbing FlightAware ADS-B
Fri 02:41:13 PM 38.3150 -121.6780 38° Northeast 442 509 19,700 1,655 Climbing FlightAware ADS-B
Fri 02:42:01 PM 38.3940 -121.6010 37° Northeast 454 522 21,000 1,705 Climbing FlightAware ADS-B
Fri 02:42:41 PM 38.4570 -121.5270 43° Northeast 459 528 22,200 1,683 Climbing FlightAware ADS-B
Fri 02:43:23 PM 38.5100 -121.4400 52° Northeast 463 533 23,300 1,500 Climbing FlightAware ADS-B
Fri 02:44:05 PM 38.5640 -121.3460 54° Northeast 471 542 24,300 1,424 Climbing FlightAware ADS-B
Fri 02:44:22 PM 38.5872 -121.3060 53° Northeast 474 545 24,700 1,472 Climbing FlightAware ADS-B
Fri 02:44:58 PM 38.6346 -121.2240 53° Northeast 481 554 25,600 1,319 Climbing FlightAware ADS-B
Fri 02:45:53 PM 38.7050 -121.1030 53° Northeast 489 563 26,700 1,253 Climbing FlightAware ADS-B
Fri 02:46:29 PM 38.7540 -121.0180 54° Northeast 495 570 27,500 1,216 Climbing FlightAware ADS-B
Fri 02:47:07 PM 38.8080 -120.9230 54° Northeast 501 577 28,200 1,326 Climbing FlightAware ADS-B
Fri 02:47:55 PM 38.8720 -120.8120 53° Northeast 501 577 29,400 1,568 Climbing FlightAware ADS-B
Fri 02:48:35 PM 38.9260 -120.7190 53° Northeast 499 574 30,500 1,482 Climbing FlightAware ADS-B
Fri 02:49:20 PM 38.9870 -120.6140 53° Northeast 499 574 31,500 1,425 Climbing FlightAware ADS-B
Fri 02:49:55 PM 39.0380 -120.5250 54° Northeast 498 573 32,400 1,154 Climbing FlightAware ADS-B
Fri 02:50:38 PM 39.0960 -120.4250 53° Northeast 505 581 33,000 1,050 Climbing FlightAware ADS-B
Fri 02:51:15 PM 39.1500 -120.3310 53° Northeast 505 581 33,800 1,120 Climbing FlightAware ADS-B
Fri 02:51:53 PM 39.2010 -120.2410 54° Northeast 508 585 34,400 1,034 Climbing FlightAware ADS-B
Fri 02:52:42 PM 39.2710 -120.1170 54° Northeast 508 585 35,300 944 Climbing FlightAware ADS-B
Fri 02:53:22 PM 39.3260 -120.0200 54° Northeast 511 588 35,800 494 Climbing FlightAware ADS-B
Fri 02:54:07 PM 39.3890 -119.9100 53° Northeast 509 586 36,000 154 Climbing FlightAware ADS-B
Fri 02:54:40 PM 39.4340 -119.8280 55° Northeast 505 581 36,000  Level FlightAware ADS-B
Fri 02:55:24 PM 39.4950 -119.7210 54° Northeast 505 581 36,000  Level FlightAware ADS-B
Fri 02:56:04 PM 39.5490 -119.6240 54° Northeast 507 583 36,000  Level FlightAware ADS-B
Fri 02:56:38 PM 39.5960 -119.5400 54° Northeast 502 578 36,000  Level FlightAware ADS-B
Fri 02:57:18 PM 39.6500 -119.4430 54° Northeast 506 582 36,000  Level FlightAware ADS-B
Fri 02:58:04 PM 39.7140 -119.3280 54° Northeast 513 590 36,000  Level FlightAware ADS-B
Fri 02:58:44 PM 39.7680 -119.2300 54° Northeast 513 590 36,000  Level FlightAware ADS-B
Fri 02:59:27 PM 39.8290 -119.1200 54° Northeast 517 595 36,000  Level FlightAware ADS-B
Fri 02:59:53 PM 39.8640 -119.0550 55° Northeast 517 595 36,000 600 Level FlightAware ADS-B
Fri 03:01:07 PM 39.9660 -118.8690 54° Northeast 506 582 37,000 536 Climbing FlightAware ADS-B
Fri 03:01:45 PM 40.0180 -118.7750 54° Northeast 496 571 37,000  Level FlightAware ADS-B
Fri 03:02:27 PM 40.0730 -118.6740 55° Northeast 500 575 37,000  Level FlightAware ADS-B
Fri 03:03:07 PM 40.1240 -118.5700 57° Northeast 502 578 37,000  Level FlightAware ADS-B
Fri 03:03:47 PM 40.1590 -118.4580 68° East 502 578 37,000  Level FlightAware ADS-B
Fri 03:04:31 PM 40.1930 -118.3330 70° East 499 574 37,000  Level FlightAware ADS-B
Fri 03:05:15 PM 40.2260 -118.2110 70° East 497 572 37,000  Level FlightAware ADS-B
Fri 03:06:25 PM 40.2750 -118.0330 70° East 496 571 37,000  Level FlightAware ADS-B
Fri 03:07:12 PM 40.3130 -117.8910 71° East 496 571 37,000  Level FlightAware ADS-B
Fri 03:07:56 PM 40.3480 -117.7600 71° East 499 574 37,000  Level FlightAware ADS-B
Fri 03:08:34 PM 40.3740 -117.6680 70° East 499 574 37,000  Level FlightAware ADS-B
Fri 03:09:56 PM 40.4290 -117.4690 70° East 499 574 37,000  Level FlightAware ADS-B
Fri 03:10:44 PM 40.4610 -117.3530 70° East 499 574 37,000  Level FlightAware ADS-B
Fri 03:11:32 PM 40.4930 -117.2360 70° East 499 574 37,000  Level FlightAware ADS-B
Fri 03:12:21 PM 40.5260 -117.1170 70° East 499 574 37,000  Level FlightAware ADS-B
Fri 03:12:57 PM 40.5500 -117.0300 70° East 499 574 37,000  Level FlightAware ADS-B
Fri 03:13:33 PM 40.5740 -116.9430 70° East 499 574 37,000  Level FlightAware ADS-B
Fri 03:14:22 PM 40.6070 -116.8240 70° East 499 574 37,000  Level FlightAware ADS-B
Fri 03:15:44 PM 40.7135 -116.3900 72° East 37,000  Level FlightAware ADS-B
Fri 03:15:49 PM 40.7173 -116.3760 70° East 510 587 37,000  Level FlightAware ADS-B
Fri 03:16:28 PM 40.7475 -116.2630 71° East 509 586 37,000  Level FlightAware ADS-B
Fri 03:17:02 PM 40.7740 -116.1640 71° East 507 583 37,000  Level FlightAware ADS-B
Fri 03:17:35 PM 40.7995 -116.0670 71° East 507 583 37,000  Level FlightAware ADS-B
Fri 03:18:08 PM 40.8248 -115.9720 71° East 507 583 37,000  Level FlightAware ADS-B
Fri 03:18:42 PM 40.8511 -115.8720 71° East 506 582 37,000  Level FlightAware ADS-B
Fri 03:21:28 PM 40.9776 -115.3860 71° East 508 585 37,000  Level FlightAware ADS-B
Fri 03:21:59 PM 41.0008 -115.2950 71° East 508 585 37,000  Level FlightAware ADS-B
Fri 03:22:32 PM 41.0253 -115.2000 71° East 509 586 37,000  Level FlightAware ADS-B
Fri 03:23:02 PM 41.0480 -115.1100 71° East 508 585 37,000  Level FlightAware ADS-B
Fri 03:23:53 PM 41.0860 -114.9610 71° East 508 585 37,000  Level FlightAware ADS-B
Fri 03:24:24 PM 41.1090 -114.8700 71° East 509 586 37,000  Level FlightAware ADS-B
Fri 03:25:00 PM 41.1363 -114.7610 72° East 510 587 37,000  Level FlightAware ADS-B
Fri 03:25:31 PM 41.1589 -114.6710 72° East 510 587 37,000  Level FlightAware ADS-B
Fri 03:26:01 PM 41.1813 -114.5810 72° East 511 588 37,000  Level FlightAware ADS-B
Fri 03:26:31 PM 41.2037 -114.4910 72° East 509 586 37,000  Level FlightAware ADS-B
Fri 03:27:01 PM 41.2258 -114.4020 72° East 509 586 37,000  Level FlightAware ADS-B
Fri 03:27:32 PM 41.2478 -114.3130 72° East 510 587 37,000  Level FlightAware ADS-B
Fri 03:28:02 PM 41.2698 -114.2230 72° East 509 586 37,000  Level FlightAware ADS-B
Fri 03:28:44 PM 41.3008 -114.0970 72° East 510 587 37,000  Level FlightAware ADS-B
Fri 03:29:17 PM 41.3244 -114.0000 72° East 510 587 37,000  Level FlightAware ADS-B
Fri 03:29:48 PM 41.3463 -113.9090 72° East 508 585 37,000  Level FlightAware ADS-B
Fri 03:30:12 PM 41.3617 -113.8350 74° East 509 586 37,000  Level FlightAware ADS-B
Fri 03:30:27 PM 41.3693 -113.7890 78° East 508 585 37,000  Level FlightAware ADS-B
Fri 03:30:58 PM 41.3821 -113.6960 80° East 508 585 37,000  Level FlightAware ADS-B
Fri 03:31:28 PM 41.3939 -113.6030 80° East 507 583 37,000  Level FlightAware ADS-B
Fri 03:31:58 PM 41.4055 -113.5110 80° East 507 583 37,000  Level FlightAware ADS-B
Fri 03:32:29 PM 41.4176 -113.4160 80° East 507 583 37,000  Level FlightAware ADS-B
Fri 03:32:59 PM 41.4293 -113.3220 81° East 507 583 37,000  Level FlightAware ADS-B
Fri 03:33:30 PM 41.4410 -113.2280 81° East 507 583 37,000  Level FlightAware ADS-B
Fri 03:34:02 PM 41.4533 -113.1290 81° East 507 583 37,000  Level FlightAware ADS-B
Fri 03:34:35 PM 41.4658 -113.0280 81° East 508 585 37,000  Level FlightAware ADS-B
Fri 03:35:10 PM 41.4790 -112.9200 81° East 508 585 37,000  Level FlightAware ADS-B
Fri 03:35:46 PM 41.4923 -112.8100 81° East 508 585 37,000  Level FlightAware ADS-B
Fri 03:36:17 PM 41.5039 -112.7140 81° East 507 583 37,000  Level FlightAware ADS-B
Fri 03:36:47 PM 41.5150 -112.6210 81° East 507 583 37,000  Level FlightAware ADS-B
Fri 03:37:23 PM 41.5279 -112.5130 81° East 507 583 37,000  Level FlightAware ADS-B
Fri 03:37:53 PM 41.5386 -112.4190 81° East 509 586 37,000  Level FlightAware ADS-B
Fri 03:38:30 PM 41.5505 -112.3050 82° East 510 587 37,000  Level FlightAware ADS-B
Fri 03:39:01 PM 41.5604 -112.2080 82° East 510 587 37,000  Level FlightAware ADS-B
Fri 03:39:31 PM 41.5702 -112.1130 82° East 511 588 37,000  Level FlightAware ADS-B
Fri 03:40:02 PM 41.5799 -112.0180 82° East 512 589 37,000  Level FlightAware ADS-B
Fri 03:40:33 PM 41.5899 -111.9200 82° East 513 590 37,000  Level FlightAware ADS-B
Fri 03:41:07 PM 41.6007 -111.8150 82° East 514 592 37,000  Level FlightAware ADS-B
Fri 03:41:53 PM 41.6153 -111.6690 82° East 515 593 37,000  Level FlightAware ADS-B
Fri 03:42:23 PM 41.6249 -111.5740 82° East 515 593 37,000  Level FlightAware ADS-B
Fri 03:42:53 PM 41.6342 -111.4790 83° East 514 592 37,000  Level FlightAware ADS-B
Fri 03:43:25 PM 41.6437 -111.3810 83° East 514 592 37,000  Level FlightAware ADS-B
Fri 03:43:56 PM 41.6531 -111.2840 83° East 515 593 37,000  Level FlightAware ADS-B
Fri 03:44:26 PM 41.6622 -111.1880 83° East 514 592 37,000  Level FlightAware ADS-B
Fri 03:44:56 PM 41.6713 -111.0930 83° East 514 592 37,000  Level FlightAware ADS-B
Fri 03:45:26 PM 41.6802 -110.9990 83° East 513 590 37,000  Level FlightAware ADS-B
Fri 03:45:56 PM 41.6890 -110.9040 83° East 514 592 37,000  Level FlightAware ADS-B
Fri 03:46:28 PM 41.6980 -110.8050 83° East 514 592 37,000  Level FlightAware ADS-B
Fri 03:46:58 PM 41.7068 -110.7110 83° East 515 593 37,000  Level FlightAware ADS-B
Fri 03:53:02 PM 41.8050 -109.5710 83° East 512 589 37,000  Level FlightAware ADS-B
Fri 03:53:46 PM 41.8160 -109.4270 84° East 512 589 37,000  Level FlightAware ADS-B
Fri 03:54:26 PM 41.8260 -109.3010 84° East 511 588 37,000  Level FlightAware ADS-B
Fri 03:55:10 PM 41.8370 -109.1640 84° East 511 588 37,000  Level FlightAware ADS-B
Fri 03:55:47 PM 41.8460 -109.0490 84° East 511 588 37,000  Level FlightAware ADS-B
Fri 03:56:27 PM 41.8560 -108.9220 84° East 511 588 37,000  Level FlightAware ADS-B
Fri 03:57:14 PM 41.8670 -108.7730 84° East 512 589 37,000  Level FlightAware ADS-B
Fri 03:57:58 PM 41.8770 -108.6340 84° East 512 589 37,000  Level FlightAware ADS-B
Fri 03:58:38 PM 41.8860 -108.5090 84° East 512 589 37,000  Level FlightAware ADS-B
Fri 03:59:18 PM 41.8940 -108.3820 85° East 512 589 37,000  Level FlightAware ADS-B
Fri 03:59:54 PM 41.9020 -108.2680 85° East 511 588 37,000  Level FlightAware ADS-B
Fri 04:00:07 PM 41.9050 -108.2290 84° East 511 588 37,000  Level FlightAware ADS-B
Fri 04:01:22 PM 41.9210 -107.9910 85° East 508 585 37,000  Level FlightAware ADS-B
Fri 04:02:33 PM 41.9360 -107.7870 84° East 507 583 37,000  Level FlightAware ADS-B
Fri 04:03:01 PM 41.9410 -107.6940 86° East 503 579 37,000  Level FlightAware ADS-B
Fri 04:03:35 PM 41.9470 -107.6040 85° East 503 579 37,000  Level FlightAware ADS-B
Fri 04:04:23 PM 41.9550 -107.4760 85° East 503 579 37,000  Level FlightAware ADS-B
Fri 04:04:59 PM 41.9610 -107.3810 85° East 503 579 37,000  Level FlightAware ADS-B
Fri 04:05:36 PM 41.9670 -107.2830 85° East 503 579 37,000  Level FlightAware ADS-B
Fri 04:06:24 PM 41.9760 -107.1560 85° East 503 579 37,000  Level FlightAware ADS-B
Fri 04:07:01 PM 41.9820 -107.0580 85° East 503 579 37,000  Level FlightAware ADS-B
Fri 04:07:48 PM 41.9900 -106.9330 85° East 503 579 37,000  Level FlightAware ADS-B
Fri 04:08:25 PM 41.9960 -106.8350 85° East 503 579 37,000  Level FlightAware ADS-B
Fri 04:09:11 PM 42.0040 -106.7130 85° East 503 579 37,000  Level FlightAware ADS-B
Fri 04:09:49 PM 42.0110 -106.6120 85° East 503 579 37,000  Level FlightAware ADS-B
Fri 04:10:31 PM 42.0220 -106.2840 87° East 507 583 37,000  Level FlightAware ADS-B
Fri 04:11:39 PM 42.0330 -106.0750 86° East 508 585 37,000  Level FlightAware ADS-B
Fri 04:12:20 PM 42.0390 -105.9650 86° East 508 585 37,000  Level FlightAware ADS-B
Fri 04:12:55 PM 42.0450 -105.8380 86° East 507 583 37,000  Level FlightAware ADS-B
Fri 04:13:52 PM 42.0520 -105.6830 86° East 507 583 37,000  Level FlightAware ADS-B
Fri 04:14:28 PM 42.0570 -105.5870 86° East 507 583 37,000  Level FlightAware ADS-B
Fri 04:14:53 PM 42.0610 -105.5200 85° East 507 583 37,000  Level FlightAware ADS-B
Fri 04:15:36 PM 42.0660 -105.3620 88° East 503 579 37,000  Level FlightAware ADS-B
Fri 04:16:51 PM 42.0809 -105.0950 86° East 500 575 37,000  Level FlightAware ADS-B
Fri 04:17:22 PM 42.0889 -105.0020 83° East 498 573 37,000  Level FlightAware ADS-B
Fri 04:17:52 PM 42.0970 -104.9090 83° East 498 573 37,000  Level FlightAware ADS-B
Fri 04:18:25 PM 42.1061 -104.8060 66° East 497 572 37,000  Level FlightAware ADS-B
Fri 04:18:57 PM 42.1146 -104.7080 83° East 497 572 37,000  Level FlightAware ADS-B
Fri 04:19:27 PM 42.1225 -104.6150 83° East 497 572 37,000  Level FlightAware ADS-B
Fri 04:19:58 PM 42.1304 -104.5220 83° East 497 572 37,000  Level FlightAware ADS-B
Fri 04:20:28 PM 42.1382 -104.4300 83° East 496 571 37,000  Level FlightAware ADS-B
Fri 04:21:02 PM 42.1468 -104.3260 84° East 497 572 37,000  Level FlightAware ADS-B
Fri 04:21:33 PM 42.1545 -104.2320 84° East 496 571 37,000  Level FlightAware ADS-B
Fri 04:22:03 PM 42.1622 -104.1370 84° East 496 571 37,000  Level FlightAware ADS-B
Fri 04:22:34 PM 42.1696 -104.0450 84° East 498 573 37,000  Level FlightAware ADS-B
Fri 04:23:07 PM 42.1778 -103.9410 84° East 497 572 37,000  Level FlightAware ADS-B
Fri 04:23:38 PM 42.1852 -103.8470 84° East 498 573 37,000  Level FlightAware ADS-B
Fri 04:24:08 PM 42.1924 -103.7550 84° East 497 572 37,000  Level FlightAware ADS-B
Fri 04:24:38 PM 42.1995 -103.6620 84° East 498 573 37,000  Level FlightAware ADS-B
Fri 04:25:10 PM 42.2070 -103.5640 84° East 497 572 37,000  Level FlightAware ADS-B
Fri 04:25:41 PM 42.2140 -103.4700 84° East 497 572 37,000  Level FlightAware ADS-B
Fri 04:26:11 PM 42.2210 -103.3770 84° East 496 571 37,000  Level FlightAware ADS-B
Fri 04:26:43 PM 42.2283 -103.2770 84° East 497 572 37,000  Level FlightAware ADS-B
Fri 04:27:14 PM 42.2352 -103.1830 84° East 498 573 37,000  Level FlightAware ADS-B
Fri 04:27:44 PM 42.2418 -103.0900 84° East 497 572 37,000  Level FlightAware ADS-B
Fri 04:28:17 PM 42.2489 -102.9900 84° East 497 572 37,000  Level FlightAware ADS-B
Fri 04:28:47 PM 42.2555 -102.8960 85° East 497 572 37,000  Level FlightAware ADS-B
Fri 04:29:19 PM 42.2623 -102.7970 85° East 497 572 37,000  Level FlightAware ADS-B
Fri 04:29:50 PM 42.2688 -102.7020 85° East 497 572 37,000  Level FlightAware ADS-B
Fri 04:30:23 PM 42.2757 -102.6000 85° East 496 571 37,000  Level FlightAware ADS-B
Fri 04:30:53 PM 42.2819 -102.5070 85° East 495 570 37,000  Level FlightAware ADS-B
Fri 04:31:24 PM 42.2881 -102.4130 85° East 494 568 37,000  Level FlightAware ADS-B
Fri 04:32:23 PM 42.2997 -102.2340 85° East 492 566 37,000  Level FlightAware ADS-B
Fri 04:33:12 PM 42.3094 -102.0889 85° East 490 564 37,000  Level Denver Center
Fri 04:34:14 PM 42.3208 -101.9133 85° East 490 564 37,000  Level Denver Center
Fri 04:35:15 PM 42.3325 -101.7122 85° East 491 565 37,000  Level Denver Center
Fri 04:37:19 PM 42.3519 -101.3636 86° East 486 559 37,000  Level Denver Center
Fri 04:38:21 PM 42.3631 -101.1619 86° East 481 554 37,000  Level Denver Center
Fri 04:39:22 PM 42.3717 -100.9897 86° East 479 551 37,000  Level Denver Center
Fri 04:45:38 PM 42.4268 -99.8470 86° East 473 544 37,000  Level FlightAware ADS-B
Fri 04:46:09 PM 42.4306 -99.7567 87° East 472 543 37,000  Level FlightAware ADS-B
Fri 04:46:39 PM 42.4343 -99.6677 87° East 471 542 37,000  Level FlightAware ADS-B
Fri 04:47:09 PM 42.4379 -99.5794 87° East 471 542 37,000  Level FlightAware ADS-B
Fri 04:47:40 PM 42.4416 -99.4893 87° East 469 540 37,000  Level FlightAware ADS-B
Fri 04:48:10 PM 42.4450 -99.4008 87° East 468 539 37,000  Level FlightAware ADS-B
Fri 04:50:31 PM 42.4601 -98.9925 87° East 466 536 37,000  Level FlightAware ADS-B
Fri 04:51:02 PM 42.4633 -98.9020 87° East 465 535 37,000  Level FlightAware ADS-B
Fri 04:51:33 PM 42.4663 -98.8142 87° East 464 534 37,000  Level FlightAware ADS-B
Fri 04:54:07 PM 42.4866 -98.3683 86° East 462 532 37,000  Level FlightAware ADS-B
Fri 04:54:37 PM 42.4908 -98.2819 86° East 462 532 37,000  Level FlightAware ADS-B
Fri 04:55:07 PM 42.4948 -98.1951 86° East 462 532 37,000  Level FlightAware ADS-B
Fri 04:55:37 PM 42.4988 -98.1087 86° East 461 531 37,000  Level FlightAware ADS-B
Fri 04:56:08 PM 42.5028 -98.0199 86° East 461 531 37,000  Level FlightAware ADS-B
Fri 04:56:38 PM 42.5067 -97.9335 86° East 461 531 37,000  Level FlightAware ADS-B
Fri 04:57:10 PM 42.5106 -97.8434 87° East 460 529 37,000  Level FlightAware ADS-B
Fri 04:57:40 PM 42.5144 -97.7573 87° East 459 528 37,000  Level FlightAware ADS-B
Fri 04:58:14 PM 42.5186 -97.6588 87° East 460 529 37,000  Level FlightAware ADS-B
Fri 04:58:45 PM 42.5223 -97.5714 87° East 460 529 37,000  Level FlightAware ADS-B
Fri 04:59:15 PM 42.5259 -97.4836 87° East 461 531 37,000  Level FlightAware ADS-B
Fri 04:59:47 PM 42.5295 -97.3919 87° East 463 533 37,000  Level FlightAware ADS-B
Fri 05:00:17 PM 42.5330 -97.3040 87° East 465 535 37,000  Level FlightAware ADS-B
Fri 05:00:48 PM 42.5365 -97.2147 87° East 467 537 37,000  Level FlightAware ADS-B
Fri 05:01:19 PM 42.5399 -97.1258 87° East 468 539 37,000  Level FlightAware ADS-B
Fri 05:01:49 PM 42.5432 -97.0358 87° East 468 539 37,000  Level FlightAware ADS-B
Fri 05:02:20 PM 42.5465 -96.9452 87° East 469 540 37,000  Level FlightAware ADS-B
Fri 05:02:52 PM 42.5497 -96.8543 87° East 469 540 37,000  Level FlightAware ADS-B
Fri 05:03:22 PM 42.5528 -96.7661 87° East 469 540 37,000  Level FlightAware ADS-B
Fri 05:03:52 PM 42.5558 -96.6778 87° East 468 539 37,000  Level FlightAware ADS-B
Fri 05:04:22 PM 42.5587 -96.5889 87° East 469 540 37,000  Level FlightAware ADS-B
Fri 05:04:52 PM 42.5616 -96.5003 87° East 468 539 37,000  Level FlightAware ADS-B
Fri 05:05:23 PM 42.5645 -96.4114 87° East 467 537 37,000  Level FlightAware ADS-B
Fri 05:05:53 PM 42.5672 -96.3236 88° East 466 536 37,000  Level FlightAware ADS-B
Fri 05:06:23 PM 42.5699 -96.2348 88° East 466 536 37,000  Level FlightAware ADS-B
Fri 05:06:53 PM 42.5725 -96.1471 88° East 466 536 37,000  Level FlightAware ADS-B
Fri 05:07:24 PM 42.5750 -96.0590 88° East 467 537 37,000  Level FlightAware ADS-B
Fri 05:07:54 PM 42.5774 -95.9711 88° East 467 537 37,000  Level FlightAware ADS-B
Fri 05:08:24 PM 42.5798 -95.8835 88° East 467 537 37,000  Level FlightAware ADS-B
Fri 05:08:54 PM 42.5821 -95.7950 88° East 467 537 37,000  Level FlightAware ADS-B
Fri 05:09:24 PM 42.5843 -95.7063 88° East 466 536 37,000  Level FlightAware ADS-B
Fri 05:09:56 PM 42.5866 -95.6157 88° East 466 536 37,000 290 Level FlightAware ADS-B
Fri 05:10:26 PM 42.5887 -95.5282 88° East 466 536 37,300 900 Climbing FlightAware ADS-B
Fri 05:10:56 PM 42.5907 -95.4395 88° East 463 533 37,900 1,258 Climbing FlightAware ADS-B
Fri 05:11:28 PM 42.5928 -95.3481 88° East 459 528 38,600 1,048 Climbing FlightAware ADS-B
Fri 05:11:59 PM 42.5948 -95.2580 88° East 459 528 39,000 393 Climbing FlightAware ADS-B
Fri 05:12:29 PM 42.5966 -95.1708 88° East 459 528 39,000  Level FlightAware ADS-B
Fri 05:13:05 PM 42.5987 -95.0677 88° East 459 528 39,000  Level FlightAware ADS-B
Fri 05:13:36 PM 42.6003 -94.9813 89° East 454 522 39,000  Level FlightAware ADS-B
Fri 05:14:06 PM 42.6019 -94.8954 89° East 454 522 39,000  Level FlightAware ADS-B
Fri 05:14:38 PM 42.6035 -94.8036 89° East 454 522 39,000  Level FlightAware ADS-B
Fri 05:15:09 PM 42.6050 -94.7176 89° East 454 522 39,000  Level FlightAware ADS-B
Fri 05:15:39 PM 42.6063 -94.6323 89° East 455 524 39,000  Level FlightAware ADS-B
Fri 05:16:10 PM 42.6077 -94.5437 89° East 456 525 39,000  Level FlightAware ADS-B
Fri 05:16:43 PM 42.6091 -94.4484 89° East 458 527 39,000  Level FlightAware ADS-B
Fri 05:17:13 PM 42.6102 -94.3616 89° East 458 527 39,000  Level FlightAware ADS-B
Fri 05:17:43 PM 42.6114 -94.2754 89° East 460 529 39,000  Level FlightAware ADS-B
Fri 05:18:15 PM 42.6123 -94.1829 89° East 462 532 39,000  Level FlightAware ADS-B
Fri 05:18:50 PM 42.6130 -94.0825 89° East 463 533 39,000  Level FlightAware ADS-B
Fri 05:19:24 PM 42.6140 -93.9850 89° East 464 534 39,000  Level FlightAware ADS-B
Fri 05:19:34 PM 42.6139 -93.9549 90° East 463 533 39,000  Level FlightAware ADS-B
Fri 05:20:05 PM 42.6145 -93.8661 89° East 464 534 39,000  Level FlightAware ADS-B
Fri 05:20:35 PM 42.6150 -93.7777 90° East 465 535 39,000  Level FlightAware ADS-B
Fri 05:21:05 PM 42.6155 -93.6892 90° East 465 535 39,000  Level FlightAware ADS-B
Fri 05:22:08 PM 42.6160 -93.5090 90° East 466 536 39,000  Level FlightAware ADS-B
Fri 05:22:54 PM 42.6170 -93.3740 89° East 464 534 39,000  Level FlightAware ADS-B
Fri 05:23:34 PM 42.6170 -93.2570 90° East 463 533 39,000  Level FlightAware ADS-B
Fri 05:24:18 PM 42.6170 -93.1320 90° East 462 532 39,000  Level FlightAware ADS-B
Fri 05:24:58 PM 42.6170 -93.0150 90° East 461 531 39,000  Level FlightAware ADS-B
Fri 05:25:43 PM 42.6160 -92.8880 91° East 460 529 39,000  Level FlightAware ADS-B
Fri 05:26:26 PM 42.6160 -92.7610 90° East 458 527 39,000  Level FlightAware ADS-B
Fri 05:27:06 PM 42.6160 -92.6480 90° East 458 527 39,000  Level FlightAware ADS-B
Fri 05:27:42 PM 42.6150 -92.5440 91° East 458 527 39,000  Level FlightAware ADS-B
Fri 05:28:22 PM 42.6140 -92.4290 91° East 457 526 39,000  Level FlightAware ADS-B
Fri 05:29:06 PM 42.6130 -92.3070 91° East 457 526 39,000  Level FlightAware ADS-B
Fri 05:29:39 PM 42.6130 -92.2120 90° East 457 526 39,000  Level FlightAware ADS-B
Fri 05:30:23 PM 42.6120 -92.0830 91° East 457 526 39,000  Level FlightAware ADS-B
Fri 05:31:04 PM 42.6100 -91.9680 91° East 455 524 39,000  Level FlightAware ADS-B
Fri 05:31:39 PM 42.6090 -91.8700 91° East 454 522 39,000  Level FlightAware ADS-B
Fri 05:32:23 PM 42.6080 -91.7400 91° East 452 520 39,000  Level FlightAware ADS-B
Fri 05:33:03 PM 42.6060 -91.6290 91° East 452 520 39,000  Level FlightAware ADS-B
Fri 05:33:40 PM 42.6050 -91.5270 91° East 452 520 39,000  Level FlightAware ADS-B
Fri 05:34:27 PM 42.6030 -91.3940 91° East 452 520 39,000  Level FlightAware ADS-B
Fri 05:35:11 PM 42.6010 -91.2660 91° East 452 520 39,000  Level FlightAware ADS-B
Fri 05:35:50 PM 42.5990 -91.1590 91° East 453 521 39,000  Level FlightAware ADS-B
Fri 05:36:30 PM 42.5970 -91.0490 91° East 453 521 39,000  Level FlightAware ADS-B
Fri 05:37:06 PM 42.5950 -90.9440 91° East 453 521 39,000  Level FlightAware ADS-B
Fri 05:37:51 PM 42.5930 -90.8190 91° East 453 521 39,000  Level FlightAware ADS-B
Fri 05:38:30 PM 42.5900 -90.7050 92° East 452 520 39,000  Level FlightAware ADS-B
Fri 05:39:15 PM 42.5870 -90.5750 92° East 452 520 39,000  Level FlightAware ADS-B
Fri 05:39:55 PM 42.5850 -90.4670 91° East 450 518 39,000  Level FlightAware ADS-B
Fri 05:40:38 PM 42.5820 -90.3430 92° East 450 518 39,000  Level FlightAware ADS-B
Fri 05:41:19 PM 42.5790 -90.2290 92° East 450 518 39,000  Level FlightAware ADS-B
Fri 05:41:57 PM 42.5760 -90.1210 92° East 450 518 39,000  Level FlightAware ADS-B
Fri 05:42:39 PM 42.5730 -90.0050 92° East 450 518 39,000  Level FlightAware ADS-B
Fri 05:43:18 PM 42.5700 -89.8960 92° East 451 519 39,000  Level FlightAware ADS-B
Fri 05:43:55 PM 42.5670 -89.7900 92° East 451 519 39,000  Level FlightAware ADS-B
Fri 05:44:35 PM 42.5630 -89.6760 93° East 452 520 39,000  Level FlightAware ADS-B
Fri 05:45:14 PM 42.5600 -89.5680 92° East 455 524 39,000  Level FlightAware ADS-B
Fri 05:46:01 PM 42.5560 -89.4320 92° East 458 527 39,000  Level FlightAware ADS-B
Fri 05:46:39 PM 42.5520 -89.3230 93° East 461 531 39,000  Level FlightAware ADS-B
Fri 05:47:23 PM 42.5480 -89.1970 92° East 463 533 39,000  Level FlightAware ADS-B
Fri 05:48:07 PM 42.5430 -89.0680 93° East 466 536 39,000  Level FlightAware ADS-B
Fri 05:48:41 PM 42.5400 -88.9670 92° East 469 540 39,000  Level FlightAware ADS-B
Fri 05:49:22 PM 42.5350 -88.8500 93° East 471 542 39,000  Level FlightAware ADS-B
Fri 05:50:03 PM 42.5310 -88.7290 93° East 473 544 39,000  Level FlightAware ADS-B
Fri 05:50:41 PM 42.5260 -88.6160 93° East 476 548 39,000  Level FlightAware ADS-B
Fri 05:51:21 PM 42.5220 -88.5000 93° East 475 547 39,000  Level FlightAware ADS-B
Fri 05:52:04 PM 42.5160 -88.3700 94° East 474 545 39,000  Level FlightAware ADS-B
Fri 05:52:41 PM 42.5120 -88.2610 93° East 474 545 39,000  Level FlightAware ADS-B
Fri 05:53:29 PM 42.5050 -88.1210 94° East 474 545 39,000  Level FlightAware ADS-B
Fri 05:54:09 PM 42.5010 -87.9950 92° East 476 548 39,000  Level FlightAware ADS-B
Fri 05:54:51 PM 42.5000 -87.8750 91° East 477 549 39,000  Level FlightAware ADS-B
Fri 05:55:40 PM 42.5000 -87.7300 90° East 479 551 39,000  Level FlightAware ADS-B
Fri 05:56:23 PM 42.4990 -87.6000 91° East 480 552 39,000  Level FlightAware ADS-B
Fri 05:56:59 PM 42.4990 -87.4910 90° East 482 555 39,000  Level FlightAware ADS-B
Fri 05:57:53 PM 42.4980 -87.3310 90° East 484 557 39,000  Level FlightAware ADS-B
Fri 05:58:33 PM 42.4980 -87.2040 90° East 485 558 39,000  Level FlightAware ADS-B
Fri 05:59:17 PM 42.4960 -87.0700 91° East 486 559 39,000  Level FlightAware ADS-B
Fri 05:59:53 PM 42.4960 -86.9590 90° East 487 560 39,000  Level FlightAware ADS-B
Fri 06:00:52 PM 42.4940 -86.7800 91° East 490 564 39,000  Level FlightAware ADS-B
Fri 06:01:39 PM 42.4920 -86.6350 91° East 492 566 39,000  Level FlightAware ADS-B
Fri 06:02:17 PM 42.4910 -86.5170 91° East 494 568 39,000  Level FlightAware ADS-B
Fri 06:02:53 PM 42.4890 -86.4070 91° East 495 570 39,000  Level FlightAware ADS-B
Fri 06:03:38 PM 42.4870 -86.2700 91° East 496 571 39,000  Level FlightAware ADS-B
Fri 06:04:17 PM 42.4860 -86.1470 91° East 497 572 39,000  Level FlightAware ADS-B
Fri 06:04:59 PM 42.4830 -86.0170 92° East 497 572 39,000  Level FlightAware ADS-B
Fri 06:05:43 PM 42.4810 -85.8790 91° East 497 572 39,000  Level FlightAware ADS-B
Fri 06:06:23 PM 42.4790 -85.7590 91° East 498 573 39,000  Level FlightAware ADS-B
Fri 06:07:08 PM 42.4760 -85.6170 92° East 499 574 39,000  Level FlightAware ADS-B
Fri 06:07:39 PM 42.4740 -85.5200 92° East 498 573 39,000  Level FlightAware ADS-B
Fri 06:08:20 PM 42.4710 -85.3930 92° East 498 573 39,000  Level FlightAware ADS-B
Fri 06:09:07 PM 42.4680 -85.2470 92° East 498 573 39,000  Level FlightAware ADS-B
Fri 06:09:41 PM 42.4650 -85.1390 92° East 499 574 39,000  Level FlightAware ADS-B
Fri 06:10:23 PM 42.4620 -85.0090 92° East 499 574 39,000  Level FlightAware ADS-B
Fri 06:11:28 PM 42.4560 -84.8070 92° East 500 575 39,000  Level FlightAware ADS-B
Fri 06:12:09 PM 42.4530 -84.6780 92° East 502 578 39,000  Level FlightAware ADS-B
Fri 06:12:51 PM 42.4490 -84.5450 92° East 504 580 39,000  Level FlightAware ADS-B
Fri 06:13:28 PM 42.4450 -84.4310 93° East 507 583 39,000  Level FlightAware ADS-B
Fri 06:14:09 PM 42.4410 -84.2980 92° East 510 587 39,000  Level FlightAware ADS-B
Fri 06:14:49 PM 42.4370 -84.1750 92° East 512 589 39,000  Level FlightAware ADS-B
Fri 06:15:28 PM 42.4350 -84.0960 92° East 513 590 39,000  Level FlightAware ADS-B
Fri 06:16:36 PM 42.4260 -83.8570 93° East 517 595 39,000  Level FlightAware ADS-B
Fri 06:17:29 PM 42.4200 -83.6790 93° East 519 597 39,000  Level FlightAware ADS-B
Fri 06:18:15 PM 42.4140 -83.5270 93° East 521 600 39,000  Level FlightAware ADS-B
Fri 06:18:55 PM 42.4090 -83.4020 93° East 522 601 39,000  Level FlightAware ADS-B
Fri 06:19:41 PM 42.4030 -83.2560 93° East 523 602 39,000  Level FlightAware ADS-B
Fri 06:20:22 PM 42.3970 -83.1190 93° East 525 604 39,000  Level FlightAware ADS-B
Fri 06:21:06 PM 42.3910 -82.9660 93° East 525 604 39,000  Level FlightAware ADS-B
Fri 06:21:52 PM 42.3840 -82.8160 94° East 528 608 39,000  Level FlightAware ADS-B
Fri 06:22:35 PM 42.3780 -82.6790 93° East 529 609 39,000  Level FlightAware ADS-B
Fri 06:23:17 PM 42.3730 -82.5440 93° East 529 609 39,000  Level FlightAware ADS-B
Fri 06:23:54 PM 42.3680 -82.4210 93° East 528 608 39,000  Level FlightAware ADS-B
Fri 06:24:45 PM 42.3610 -82.2560 93° East 527 606 39,000  Level FlightAware ADS-B
Fri 06:25:27 PM 42.3560 -82.1200 93° East 526 605 39,000  Level FlightAware ADS-B
Fri 06:26:11 PM 42.3470 -81.9790 95° East 518 596 39,000  Level FlightAware ADS-B
Fri 06:26:51 PM 42.3340 -81.8450 97° East 515 593 39,000  Level FlightAware ADS-B
Fri 06:27:50 PM 42.3160 -81.6580 97° East 513 590 39,000  Level FlightAware ADS-B
Fri 06:28:27 PM 42.3040 -81.5380 98° East 510 587 39,000  Level FlightAware ADS-B
Fri 06:29:18 PM 42.2880 -81.3800 98° East 507 583 39,000  Level FlightAware ADS-B
Fri 06:29:57 PM 42.2760 -81.2610 98° East 507 583 39,000  Level FlightAware ADS-B
Fri 06:30:49 PM 42.2580 -81.0940 98° East 506 582 39,000  Level FlightAware ADS-B
Fri 06:31:29 PM 42.2430 -80.9510 98° East 506 582 39,000  Level FlightAware ADS-B
Fri 06:32:10 PM 42.2290 -80.8200 98° East 505 581 39,000  Level FlightAware ADS-B
Fri 06:32:55 PM 42.2140 -80.6840 98° East 505 581 39,000  Level FlightAware ADS-B
Fri 06:33:35 PM 42.2010 -80.5650 98° East 503 579 39,000  Level FlightAware ADS-B
Fri 06:34:16 PM 42.1870 -80.4430 99° East 501 577 39,000  Level FlightAware ADS-B
Fri 06:34:55 PM 42.1730 -80.3170 98° East 500 575 39,000  Level FlightAware ADS-B
Fri 06:35:40 PM 42.1580 -80.1830 99° East 499 574 39,000  Level FlightAware ADS-B
Fri 06:36:20 PM 42.1430 -80.0570 99° East 499 574 39,000  Level FlightAware ADS-B
Fri 06:37:05 PM 42.1270 -79.9200 99° East 498 573 39,000  Level FlightAware ADS-B
Fri 06:37:50 PM 42.1110 -79.7830 99° East 495 570 39,000  Level FlightAware ADS-B
Fri 06:38:35 PM 42.0950 -79.6470 99° East 492 566 39,000  Level FlightAware ADS-B
Fri 06:39:16 PM 42.0800 -79.5270 100° East 490 564 39,000  Level FlightAware ADS-B
Fri 06:40:00 PM 42.0640 -79.3920 99° East 488 562 39,000  Level FlightAware ADS-B
Fri 06:40:35 PM 42.0510 -79.2860 99° East 487 560 39,000  Level FlightAware ADS-B
Fri 06:41:25 PM 42.0330 -79.1390 99° East 485 558 39,000  Level FlightAware ADS-B
Fri 06:42:00 PM 42.0200 -79.0340 99° East 485 558 39,000  Level FlightAware ADS-B
Fri 06:42:40 PM 42.0050 -78.9170 100° East 485 558 39,000  Level FlightAware ADS-B
Fri 06:43:25 PM 41.9890 -78.7940 100° East 485 558 39,000  Level FlightAware ADS-B
Fri 06:44:05 PM 41.9730 -78.6680 100° East 485 558 39,000  Level FlightAware ADS-B
Fri 06:44:50 PM 41.9560 -78.5340 100° East 484 557 39,000  Level FlightAware ADS-B
Fri 06:45:35 PM 41.9350 -78.3990 102° East 475 547 39,000  Level FlightAware ADS-B
Fri 06:46:16 PM 41.9040 -78.2940 112° Southeast 468 539 39,000  Level FlightAware ADS-B
Fri 06:47:00 PM 41.8670 -78.1770 113° Southeast 467 537 39,000  Level FlightAware ADS-B
Fri 06:47:40 PM 41.8320 -78.0660 113° Southeast 466 536 39,000  Level FlightAware ADS-B
Fri 06:48:25 PM 41.7940 -77.9470 113° Southeast 465 535 39,000  Level FlightAware ADS-B
Fri 06:49:05 PM 41.7610 -77.8470 114° Southeast 465 535 39,000  Level FlightAware ADS-B
Fri 06:49:40 PM 41.7290 -77.7490 114° Southeast 466 536 39,000  Level FlightAware ADS-B
Fri 06:50:20 PM 41.6950 -77.6480 114° Southeast 467 537 39,000  Level FlightAware ADS-B
Fri 06:51:05 PM 41.6550 -77.5250 113° Southeast 470 541 39,000  Level FlightAware ADS-B
Fri 06:51:40 PM 41.6230 -77.4360 116° Southeast 469 540 39,000  Level FlightAware ADS-B
Fri 06:52:20 PM 41.5820 -77.3380 119° Southeast 465 535 39,000  Level FlightAware ADS-B
Fri 06:53:05 PM 41.5340 -77.2260 120° Southeast 467 537 39,000  Level FlightAware ADS-B
Fri 06:53:40 PM 41.4970 -77.1400 120° Southeast 465 535 39,000  Level FlightAware ADS-B
Fri 06:53:58 PM 41.4722 -77.0828 120° Southeast 466 536 39,000  Level FlightAware ADS-B
Fri 06:54:29 PM 41.4393 -77.0063 120° Southeast 467 537 39,000  Level FlightAware ADS-B
Fri 06:54:59 PM 41.4062 -76.9306 120° Southeast 467 537 39,000  Level FlightAware ADS-B
Fri 06:55:32 PM 41.3710 -76.8508 120° Southeast 468 539 39,000 -88 Level FlightAware ADS-B
Fri 06:56:07 PM 41.3331 -76.7636 120° Southeast 469 540 38,900 -831 Descending FlightAware ADS-B
Fri 06:56:37 PM 41.3014 -76.6866 119° Southeast 467 537 38,100 -1,650 Descending FlightAware ADS-B
Fri 06:56:47 PM 41.2936 -76.6604 112° Southeast 475 547 37,800 -1,742 Descending FlightAware ADS-B
Fri 06:57:08 PM 41.2822 -76.5986 104° East 484 557 37,200 -1,448 Descending FlightAware ADS-B
Fri 06:57:45 PM 41.2789 -76.4882 92° East 491 565 36,400 -1,437 Descending FlightAware ADS-B
Fri 06:58:19 PM 41.2783 -76.3857 90° East 497 572 35,500 -1,500 Descending FlightAware ADS-B
Fri 06:58:49 PM 41.2778 -76.2936 90° East 500 575 34,800 -1,279 Descending FlightAware ADS-B
Fri 06:59:20 PM 41.2773 -76.1996 90° East 502 578 34,200 -1,048 Descending FlightAware ADS-B
Fri 06:59:52 PM 41.2766 -76.1006 91° East 499 574 33,700 -1,645 Descending FlightAware ADS-B
Fri 07:00:22 PM 41.2760 -76.0076 90° East 499 574 32,500 -2,754 Descending FlightAware ADS-B
Fri 07:00:53 PM 41.2752 -75.9128 91° East 501 577 30,900 -2,710 Descending FlightAware ADS-B
Fri 07:01:24 PM 41.2743 -75.8191 91° East 508 585 29,700 -2,036 Descending FlightAware ADS-B
Fri 07:01:49 PM 41.2726 -75.7402 92° East 503 579 29,000 -1,946 Descending FlightAware ADS-B
Fri 07:02:01 PM 41.2687 -75.7031 98° East 500 575 28,500 -2,400 Descending FlightAware ADS-B
Fri 07:02:09 PM 41.2647 -75.6786 102° East 497 572 28,200 -2,571 Descending FlightAware ADS-B
Fri 07:02:22 PM 41.2560 -75.6414 107° East 493 567 27,600 -2,455 Descending FlightAware ADS-B
Fri 07:02:53 PM 41.2305 -75.5580 112° Southeast 482 555 26,400 -2,361 Descending FlightAware ADS-B
Fri 07:03:23 PM 41.2028 -75.4761 114° Southeast 472 543 25,200 -2,323 Descending FlightAware ADS-B
Fri 07:03:55 PM 41.1749 -75.3951 115° Southeast 465 535 24,000 -1,938 Descending FlightAware ADS-B
Fri 07:04:28 PM 41.1457 -75.3094 114° Southeast 460 529 23,100 -923 Descending FlightAware ADS-B
Fri 07:05:00 PM 41.1180 -75.2280 114° Southeast 454 522 23,000 -97 Descending FlightAware ADS-B
Fri 07:05:30 PM 41.0920 -75.1515 114° Southeast 452 520 23,000 -295 Level FlightAware ADS-B
Fri 07:06:01 PM 41.0658 -75.0742 114° Southeast 447 514 22,700 -750 Descending FlightAware ADS-B
Fri 07:06:34 PM 41.0388 -74.9945 114° Southeast 430 495 22,200 -952 Descending FlightAware ADS-B
Fri 07:07:04 PM 41.0142 -74.9225 114° Southeast 416 479 21,700 -857 Descending FlightAware ADS-B
Fri 07:07:16 PM 41.0054 -74.8944 113° Southeast 414 476 21,600 -581 Descending FlightAware ADS-B
Fri 07:07:35 PM 40.9949 -74.8488 107° East 412 474 21,400 -774 Descending FlightAware ADS-B
Fri 07:07:47 PM 40.9906 -74.8204 101° East 412 474 21,200 -558 Descending FlightAware ADS-B
Fri 07:08:18 PM 40.9822 -74.7434 98° East 408 470 21,000 -492 Descending FlightAware ADS-B
Fri 07:08:48 PM 40.9742 -74.6684 98° East 408 470 20,700 -1,000 Descending FlightAware ADS-B
Fri 07:09:18 PM 40.9661 -74.5941 98° East 407 468 20,000 -1,304 Descending FlightAware ADS-B
Fri 07:09:34 PM 40.9618 -74.5563 99° East 404 465 19,700 -1,385 Descending FlightAware ADS-B
Fri 07:09:57 PM 40.9528 -74.5016 102° East 396 456 19,100 -1,000 Descending FlightAware ADS-B
Fri 07:10:16 PM 40.9427 -74.4560 106° East 391 450 19,000 -115 Descending FlightAware ADS-B
Fri 07:10:49 PM 40.9234 -74.3825 109° East 390 449 19,000  Level FlightAware ADS-B
Fri 07:11:21 PM 40.9051 -74.3125 109° East 373 429 19,000  Level FlightAware ADS-B
Fri 07:11:51 PM 40.8879 -74.2479 109° East 368 423 19,000  Level FlightAware ADS-B
Fri 07:12:21 PM 40.8707 -74.1847 110° East 365 420 19,000  Level FlightAware ADS-B
Fri 07:12:52 PM 40.8530 -74.1203 110° East 368 423 19,000 -414 Level FlightAware ADS-B
Fri 07:13:19 PM 40.8374 -74.0635 110° East 366 421 18,600 -1,245 Descending FlightAware ADS-B
Fri 07:13:45 PM 40.8225 -74.0092 110° East 362 417 17,900 -1,548 Descending FlightAware ADS-B
Fri 07:13:50 PM 40.8195 -73.9982 110° East 360 414 17,800 -1,167 Descending FlightAware ADS-B
Fri 07:14:21 PM 40.8026 -73.9370 110° East 353 406 17,200 -1,297 Descending FlightAware ADS-B
Fri 07:14:27 PM 40.7986 -73.9250 114° Southeast 356 410 17,000 -1,636 Descending FlightAware ADS-B
Fri 07:14:32 PM 40.7946 -73.9158 120° Southeast 348 400 16,900 -1,500 Descending FlightAware ADS-B
Fri 07:14:43 PM 40.7833 -73.8977 130° Southeast 341 392 16,600 -1,412 Descending FlightAware ADS-B
Fri 07:14:49 PM 40.7764 -73.8900 140° Southeast 337 388 16,500 -1,500 Descending FlightAware ADS-B
Fri 07:14:55 PM 40.7680 -73.8828 147° Southeast 332 382 16,300 -1,800 Descending FlightAware ADS-B
Fri 07:14:59 PM 40.7632 -73.8797 154° Southeast 356 410 16,200 -1,200 Descending FlightAware ADS-B
Fri 07:15:00 PM 40.7610 -73.8784 156° South 329 379 16,200 -1,000 Level FlightAware ADS-B
Fri 07:15:05 PM 40.7547 -73.8755 161° South 324 373 16,100 -1,600 Descending FlightAware ADS-B
Fri 07:15:15 PM 40.7406 -73.8720 169° South 316 364 15,800 -1,714 Descending FlightAware ADS-B
Fri 07:15:26 PM 40.7252 -73.8728 182° South 309 356 15,500 -1,680 Descending FlightAware ADS-B
Fri 07:15:40 PM 40.7054 -73.8779 191° South 303 349 15,100 -1,500 Descending FlightAware ADS-B
Fri 07:16:10 PM 40.6646 -73.8904 193° South 299 344 14,400 -1,154 Descending FlightAware ADS-B
Fri 07:16:32 PM 40.6352 -73.8987 192° South 290 334 14,100 -906 Descending FlightAware ADS-B
Fri 07:17:03 PM 40.5945 -73.8921 173° South 279 321 13,600 -1,433 Descending FlightAware ADS-B
Fri 07:17:39 PM 40.5509 -73.8738 162° South 274 315 12,500 -1,791 Descending FlightAware ADS-B
Fri 07:18:10 PM 40.5151 -73.8588 162° South 267 307 11,600 -1,680 Descending FlightAware ADS-B
Fri 07:18:29 PM 40.4928 -73.8497 163° South 263 303 11,100 -1,742 Descending FlightAware ADS-B
Fri 07:18:41 PM 40.4782 -73.8438 163° South 260 299 10,700 -1,364 Descending FlightAware ADS-B
Fri 07:19:13 PM 40.4418 -73.8295 163° South 261 300 10,100 -1,149 Descending FlightAware ADS-B
Fri 07:19:28 PM 40.4238 -73.8224 163° South 261 300 9,800 -1,355 Descending FlightAware ADS-B
Fri 07:19:44 PM 40.4059 -73.8154 163° South 260 299 9,400 -1,313 Descending FlightAware ADS-B
Fri 07:20:00 PM 40.3870 -73.8080 163° South 258 297 9,100 -968 Descending FlightAware ADS-B
Fri 07:20:15 PM 40.3697 -73.8013 164° South 257 296 8,900 -968 Descending FlightAware ADS-B
Fri 07:20:31 PM 40.3517 -73.7942 163° South 256 295 8,600 -1,200 Descending FlightAware ADS-B
Fri 07:20:40 PM 40.3428 -73.7884 154° Southeast 258 297 8,400 -1,200 Descending FlightAware ADS-B
Fri 07:20:46 PM 40.3369 -73.7820 140° Southeast 258 297 8,300 -923 Descending FlightAware ADS-B
Fri 07:20:53 PM 40.3313 -73.7734 131° Southeast 260 299 8,200 -1,286 Descending FlightAware ADS-B
Fri 07:21:14 PM 40.3217 -73.7426 112° Southeast 264 304 7,700 -1,200 Descending FlightAware ADS-B
Fri 07:21:33 PM 40.3271 -73.7141 76° East 263 303 7,400 -1,200 Descending FlightAware ADS-B
Fri 07:21:44 PM 40.3353 -73.7006 51° Northeast 263 303 7,100 -1,200 Descending FlightAware ADS-B
Fri 07:21:48 PM 40.3391 -73.6966 39° Northeast 263 303 7,100 -1,000 Level FlightAware ADS-B
Fri 07:22:02 PM 40.3530 -73.6854 32° Northeast 259 298 6,800 -600 Descending FlightAware ADS-B
Fri 07:22:18 PM 40.3698 -73.6728 30° Northeast 264 304 6,800  Level FlightAware ADS-B
Fri 07:22:33 PM 40.3867 -73.6601 30° Northeast 264 304 6,800  Level FlightAware ADS-B
Fri 07:22:48 PM 40.4020 -73.6481 31° Northeast 263 303 6,800  Level FlightAware ADS-B
Fri 07:23:07 PM 40.4187 -73.6271 44° Northeast 264 304 6,800  Level FlightAware ADS-B
Fri 07:23:24 PM 40.4325 -73.6067 48° Northeast 265 305 6,800  Level FlightAware ADS-B
Fri 07:23:44 PM 40.4486 -73.5828 48° Northeast 264 304 6,800  Level FlightAware ADS-B
Fri 07:24:01 PM 40.4626 -73.5621 48° Northeast 264 304 6,800  Level FlightAware ADS-B
Fri 07:24:29 PM 40.4849 -73.5293 48° Northeast 266 306 6,800 -130 Level FlightAware ADS-B
Fri 07:24:47 PM 40.4996 -73.5075 48° Northeast 266 306 6,700 -667 Descending FlightAware ADS-B
Fri 07:25:05 PM 40.5144 -73.4857 48° Northeast 264 304 6,400 -909 Descending FlightAware ADS-B
Fri 07:25:20 PM 40.5283 -73.4694 42° Northeast 262 302 6,200 -938 Descending FlightAware ADS-B
Fri 07:25:37 PM 40.5461 -73.4553 31° Northeast 262 302 5,900 -1,043 Descending FlightAware ADS-B
Fri 07:26:29 PM 40.6020 -73.4380 13° North 244 281 5,000 -805 Descending FlightAware ADS-B
Fri 07:26:59 PM 40.6350 -73.4370 North 244 281 4,800 -162 Descending FlightAware ADS-B
Fri 07:27:43 PM 40.6850 -73.4420 356° North 238 274 4,800 -164 Level FlightAware ADS-B
Fri 07:28:12 PM 40.7150 -73.4490 350° North 236 272 4,600 -750 Descending FlightAware ADS-B
Fri 07:28:39 PM 40.7450 -73.4560 350° North 233 268 4,100 -1,077 Descending FlightAware ADS-B
Fri 07:28:51 PM 40.7560 -73.4650 328° Northwest 226 260 3,900 -1,200 Descending FlightAware ADS-B
Fri 07:29:19 PM 40.7750 -73.4940 311° West 225 259 3,300 -1,091 Descending FlightAware ADS-B
Fri 07:29:35 PM 40.7850 -73.5100 310° West 224 258 3,100 -682 Descending FlightAware ADS-B
Fri 07:30:03 PM 40.8040 -73.5400 310° West 212 244 2,800 -321 Descending FlightAware ADS-B
Fri 07:30:31 PM 40.8190 -73.5640 310° West 185 213 2,800 150 Level FlightAware ADS-B
Fri 07:30:43 PM 40.8230 -73.5770 292° West 178 205 2,900  Climbing FlightAware ADS-B
Fri 07:31:12 PM 40.8270 -73.6060 280° West 167 192 2,800 -107 Descending FlightAware ADS-B
Fri 07:31:39 PM 40.8200 -73.6330 251° West 162 186 2,800  Level FlightAware ADS-B
Fri 07:31:57 PM 40.8110 -73.6460 228° Southwest 165 190 2,800  Level FlightAware ADS-B
Fri 07:32:09 PM 40.8040 -73.6540 221° Southwest 166 191 2,800 150 Level FlightAware ADS-B
Fri 07:32:37 PM 40.7860 -73.6690 212° Southwest 167 192 2,900 -214 Climbing FlightAware ADS-B
Fri 07:33:05 PM 40.7660 -73.6820 206° Southwest 169 194 2,600 -808 Descending FlightAware ADS-B
Fri 07:33:29 PM 40.7500 -73.6930 208° Southwest 170 196 2,200 -875 Descending FlightAware ADS-B
Fri 07:33:53 PM 40.7340 -73.7050 210° Southwest 166 191 1,900 -808 Descending FlightAware ADS-B
Fri 07:34:21 PM 40.7150 -73.7180 207° Southwest 162 186 1,500 -857 Descending FlightAware ADS-B
Fri 07:34:49 PM 40.6970 -73.7310 209° Southwest 142 163 1,100 -750 Descending FlightAware ADS-B
Fri 07:35:17 PM 40.6830 -73.7410 208° Southwest 119 137 800 -646 Descending FlightAware ADS-B
Fri 07:35:54 PM 40.6647 -73.7533 207° Southwest 119 137 400 -649 Descending FlightAware ADS-B
Fri 07:36:43 PM 40.6410 -73.7710 210° Southwest 127 146 -490 Descending FlightAware ADS-B
Fri 07:36:55 PM 40.6350 -73.7750 207° Southwest 94 108  Level FlightAware ADS-B
Fri 07:37:23 PM 40.6310 -73.7790 217° Southwest 16 18  Level FlightAware ADS-B
Fri 07:37:53 PM 40.6330 -73.7800 339° North 33 38  Level FlightAware ADS-B
Fri 07:38:04 PM 40.6330 -73.7790 90° East 30 35  Level FlightAware ADS-B
Fri 07:38:21 PM 40.6340 -73.7780 37° Northeast 30 35  Level FlightAware ADS-B

Login

Don't have an account? Register now (free) for customized features, flight alerts, and more!